N417JT KFRG-KMDW
Flight info
| Callsign | N417JT |
|---|---|
| Flight time | N/A |
| Altitude | 30000 |
| Route | DEEZZ5 CANDR J60 DJB ASHEN PANGG7 |
| Aircraft | SF50/L-BDGRSWY/LB2U2 |
Departure
| Time | 2026-05-04 00:10 |
|---|---|
| Airport | Republic Airport (KFRG) |
Arrival
| Time | N/A |
|---|---|
| Airport | Chicago Midway International Airport (KMDW) |
| Time | Latitude | Longitude | Altitude | Speed | Heading |
|---|---|---|---|---|---|
| 2026-05-03 23:46 | 40.72816 | -73.41627 | 78 ft | 0 kts | 220° |
| 2026-05-03 23:50 | 40.72817 | -73.41627 | 78 ft | 0 kts | 220° |
| 2026-05-03 23:52 | 40.72817 | -73.41626 | 74 ft | 0 kts | 220° |
| 2026-05-04 00:04 | 40.72810 | -73.41634 | 65 ft | 3 kts | 218° |
| 2026-05-04 00:04 | 40.72795 | -73.41623 | 77 ft | 3 kts | 65° |
| 2026-05-04 00:05 | 40.72801 | -73.41612 | 64 ft | 0 kts | 52° |
| 2026-05-04 00:05 | 40.72821 | -73.41585 | 80 ft | 7 kts | 38° |
| 2026-05-04 00:05 | 40.72868 | -73.41619 | 67 ft | 12 kts | 312° |
| 2026-05-04 00:06 | 40.72934 | -73.41702 | 78 ft | 13 kts | 351° |
| 2026-05-04 00:06 | 40.72943 | -73.41632 | 75 ft | 11 kts | 134° |
| 2026-05-04 00:06 | 40.72895 | -73.41564 | 78 ft | 9 kts | 132° |
| 2026-05-04 00:06 | 40.72864 | -73.41522 | 80 ft | 4 kts | 134° |
| 2026-05-04 00:07 | 40.72854 | -73.41506 | 80 ft | 0 kts | 130° |
| 2026-05-04 00:07 | 40.72847 | -73.41495 | 80 ft | 6 kts | 133° |
| 2026-05-04 00:07 | 40.72789 | -73.41410 | 80 ft | 19 kts | 131° |
| 2026-05-04 00:08 | 40.72685 | -73.41260 | 79 ft | 23 kts | 134° |
| 2026-05-04 00:08 | 40.72575 | -73.41097 | 74 ft | 25 kts | 135° |
| 2026-05-04 00:08 | 40.72452 | -73.40922 | 71 ft | 26 kts | 134° |
| 2026-05-04 00:08 | 40.72330 | -73.40750 | 70 ft | 24 kts | 136° |
| 2026-05-04 00:09 | 40.72223 | -73.40593 | 70 ft | 22 kts | 134° |
| 2026-05-04 00:09 | 40.72143 | -73.40472 | 70 ft | 12 kts | 118° |
| 2026-05-04 00:09 | 40.72175 | -73.40401 | 70 ft | 8 kts | 44° |
| 2026-05-04 00:09 | 40.72233 | -73.40401 | 69 ft | 14 kts | 324° |
| 2026-05-04 00:10 | 40.72357 | -73.40574 | 67 ft | 53 kts | 313° |
| 2026-05-04 00:10 | 40.72774 | -73.41157 | 153 ft | 112 kts | 313° |
| 2026-05-04 00:10 | 40.73334 | -73.41871 | 821 ft | 115 kts | 311° |
| 2026-05-04 00:10 | 40.73932 | -73.42649 | 1512 ft | 125 kts | 312° |
| 2026-05-04 00:11 | 40.74731 | -73.43016 | 2430 ft | 126 kts | 355° |
| 2026-05-04 00:11 | 40.75559 | -73.43277 | 3089 ft | 129 kts | 312° |
| 2026-05-04 00:11 | 40.76209 | -73.44183 | 3447 ft | 148 kts | 317° |
| 2026-05-04 00:11 | 40.77075 | -73.44962 | 4065 ft | 150 kts | 321° |
| 2026-05-04 00:12 | 40.77917 | -73.45751 | 4775 ft | 148 kts | 320° |
| 2026-05-04 00:12 | 40.78750 | -73.46538 | 5457 ft | 146 kts | 319° |
| 2026-05-04 00:12 | 40.79572 | -73.47319 | 6155 ft | 145 kts | 320° |
| 2026-05-04 00:12 | 40.80388 | -73.48096 | 6841 ft | 144 kts | 320° |
| 2026-05-04 00:13 | 40.81193 | -73.48860 | 7503 ft | 144 kts | 320° |
| 2026-05-04 00:13 | 40.82007 | -73.49638 | 8178 ft | 144 kts | 321° |
| 2026-05-04 00:13 | 40.82823 | -73.50412 | 8849 ft | 144 kts | 321° |
| 2026-05-04 00:13 | 40.83639 | -73.51189 | 9520 ft | 144 kts | 321° |
| 2026-05-04 00:14 | 40.84458 | -73.51967 | 10126 ft | 146 kts | 321° |
| 2026-05-04 00:14 | 40.85277 | -73.52746 | 10669 ft | 148 kts | 322° |
| 2026-05-04 00:14 | 40.86122 | -73.53546 | 11218 ft | 151 kts | 322° |
| 2026-05-04 00:14 | 40.86979 | -73.54364 | 11767 ft | 153 kts | 322° |
| 2026-05-04 00:15 | 40.87850 | -73.55194 | 12298 ft | 156 kts | 322° |
| 2026-05-04 00:15 | 40.88737 | -73.56039 | 12832 ft | 158 kts | 322° |
| 2026-05-04 00:15 | 40.89635 | -73.56897 | 13366 ft | 161 kts | 323° |
| 2026-05-04 00:15 | 40.90552 | -73.57770 | 13865 ft | 163 kts | 322° |
| 2026-05-04 00:16 | 40.91475 | -73.58652 | 14334 ft | 165 kts | 322° |
| 2026-05-04 00:16 | 40.92410 | -73.59545 | 14795 ft | 166 kts | 322° |
| 2026-05-04 00:16 | 40.93354 | -73.60445 | 15251 ft | 168 kts | 321° |
| 2026-05-04 00:16 | 40.94307 | -73.61353 | 15703 ft | 169 kts | 321° |
| 2026-05-04 00:17 | 40.95256 | -73.62260 | 16146 ft | 171 kts | 321° |
| 2026-05-04 00:17 | 40.96226 | -73.63186 | 16583 ft | 173 kts | 320° |
| 2026-05-04 00:17 | 40.97204 | -73.64120 | 17017 ft | 174 kts | 320° |
| 2026-05-04 00:17 | 40.98191 | -73.65063 | 17445 ft | 176 kts | 320° |
| 2026-05-04 00:18 | 40.99185 | -73.66017 | 17859 ft | 177 kts | 320° |
| 2026-05-04 00:18 | 41.00192 | -73.66978 | 18271 ft | 179 kts | 319° |
| 2026-05-04 00:18 | 41.01205 | -73.67950 | 18641 ft | 180 kts | 319° |
| 2026-05-04 00:18 | 41.02222 | -73.68924 | 19011 ft | 181 kts | 319° |
| 2026-05-04 00:19 | 41.03229 | -73.69892 | 19389 ft | 182 kts | 319° |
| 2026-05-04 00:19 | 41.04258 | -73.70874 | 19753 ft | 182 kts | 319° |
| 2026-05-04 00:19 | 41.05288 | -73.71861 | 20113 ft | 183 kts | 319° |
| 2026-05-04 00:19 | 41.06324 | -73.72853 | 20472 ft | 184 kts | 319° |
| 2026-05-04 00:20 | 41.07363 | -73.73849 | 20823 ft | 185 kts | 318° |
| 2026-05-04 00:20 | 41.08410 | -73.74840 | 21176 ft | 184 kts | 317° |
| 2026-05-04 00:20 | 41.09442 | -73.75841 | 21559 ft | 183 kts | 317° |
| 2026-05-04 00:20 | 41.10384 | -73.76947 | 21926 ft | 179 kts | 307° |
| 2026-05-04 00:21 | 41.11130 | -73.78247 | 22314 ft | 176 kts | 299° |
| 2026-05-04 00:21 | 41.11674 | -73.79687 | 22716 ft | 174 kts | 290° |
| 2026-05-04 00:21 | 41.12005 | -73.81201 | 23114 ft | 172 kts | 282° |
| 2026-05-04 00:21 | 41.12245 | -73.82750 | 23503 ft | 171 kts | 283° |
| 2026-05-04 00:22 | 41.12499 | -73.84289 | 23806 ft | 170 kts | 283° |
| 2026-05-04 00:22 | 41.12749 | -73.85820 | 24127 ft | 170 kts | 283° |
| 2026-05-04 00:22 | 41.13000 | -73.87352 | 24455 ft | 169 kts | 283° |
| 2026-05-04 00:22 | 41.13249 | -73.88877 | 24770 ft | 169 kts | 283° |
| 2026-05-04 00:23 | 41.13494 | -73.90398 | 25085 ft | 168 kts | 283° |
| 2026-05-04 00:23 | 41.13737 | -73.91898 | 25402 ft | 168 kts | 283° |
| 2026-05-04 00:23 | 41.13980 | -73.93411 | 25716 ft | 168 kts | 283° |
| 2026-05-04 00:23 | 41.14225 | -73.94921 | 26034 ft | 167 kts | 283° |
| 2026-05-04 00:24 | 41.14466 | -73.96426 | 26348 ft | 167 kts | 282° |
| 2026-05-04 00:24 | 41.14709 | -73.97931 | 26656 ft | 166 kts | 282° |
| 2026-05-04 00:24 | 41.14949 | -73.99434 | 26970 ft | 166 kts | 282° |
| 2026-05-04 00:24 | 41.15190 | -74.00935 | 27266 ft | 166 kts | 282° |
| 2026-05-04 00:25 | 41.15431 | -74.02440 | 27547 ft | 167 kts | 282° |
| 2026-05-04 00:25 | 41.15672 | -74.03946 | 27860 ft | 166 kts | 282° |
| 2026-05-04 00:25 | 41.15912 | -74.05448 | 28172 ft | 166 kts | 282° |
| 2026-05-04 00:25 | 41.16152 | -74.06951 | 28476 ft | 166 kts | 282° |
| 2026-05-04 00:26 | 41.16391 | -74.08443 | 28790 ft | 165 kts | 282° |
| 2026-05-04 00:26 | 41.16628 | -74.09932 | 29098 ft | 165 kts | 282° |
| 2026-05-04 00:26 | 41.16862 | -74.11402 | 29400 ft | 164 kts | 282° |
| 2026-05-04 00:26 | 41.17014 | -74.12906 | 29698 ft | 164 kts | 278° |
| 2026-05-04 00:27 | 41.17161 | -74.14411 | 29923 ft | 167 kts | 278° |
| 2026-05-04 00:27 | 41.17318 | -74.15996 | 29934 ft | 178 kts | 278° |
| 2026-05-04 00:27 | 41.17477 | -74.17673 | 29931 ft | 187 kts | 278° |
| 2026-05-04 00:27 | 41.17644 | -74.19423 | 29933 ft | 194 kts | 278° |
| 2026-05-04 00:28 | 41.17815 | -74.21234 | 29937 ft | 201 kts | 278° |
| 2026-05-04 00:28 | 41.17991 | -74.23099 | 29935 ft | 206 kts | 278° |
| 2026-05-04 00:28 | 41.18177 | -74.25017 | 29931 ft | 212 kts | 278° |
| 2026-05-04 00:28 | 41.18361 | -74.26978 | 29937 ft | 217 kts | 278° |
| 2026-05-04 00:29 | 41.18549 | -74.28967 | 29942 ft | 223 kts | 278° |
| 2026-05-04 00:29 | 41.18744 | -74.31036 | 29942 ft | 228 kts | 278° |
| 2026-05-04 00:29 | 41.18943 | -74.33152 | 29945 ft | 233 kts | 278° |
| 2026-05-04 00:29 | 41.19145 | -74.35304 | 29944 ft | 237 kts | 278° |
| 2026-05-04 00:30 | 41.19352 | -74.37494 | 29933 ft | 240 kts | 278° |
| 2026-05-04 00:30 | 41.19559 | -74.39703 | 29934 ft | 242 kts | 278° |
| 2026-05-04 00:30 | 41.19753 | -74.41939 | 29939 ft | 245 kts | 276° |
| 2026-05-04 00:30 | 41.19710 | -74.44213 | 29941 ft | 249 kts | 268° |
| 2026-05-04 00:31 | 41.19385 | -74.46487 | 29940 ft | 254 kts | 259° |
| 2026-05-04 00:31 | 41.18766 | -74.48708 | 29943 ft | 260 kts | 251° |
| 2026-05-04 00:31 | 41.17873 | -74.50800 | 29945 ft | 264 kts | 245° |
| 2026-05-04 00:31 | 41.16914 | -74.52883 | 29952 ft | 265 kts | 245° |
| 2026-05-04 00:32 | 41.15961 | -74.54988 | 29950 ft | 267 kts | 245° |
| 2026-05-04 00:32 | 41.14996 | -74.57099 | 29933 ft | 267 kts | 245° |
| 2026-05-04 00:32 | 41.14036 | -74.59192 | 29937 ft | 265 kts | 245° |
| 2026-05-04 00:32 | 41.13083 | -74.61272 | 29935 ft | 263 kts | 245° |
| 2026-05-04 00:33 | 41.12148 | -74.63313 | 29933 ft | 261 kts | 245° |
| 2026-05-04 00:33 | 41.10573 | -74.66752 | 29936 ft | 263 kts | 245° |
| 2026-05-04 00:33 | 41.09291 | -74.69544 | 29936 ft | 265 kts | 245° |
| 2026-05-04 00:34 | 41.08330 | -74.71638 | 29936 ft | 266 kts | 245° |
| 2026-05-04 00:34 | 41.07367 | -74.73735 | 29936 ft | 266 kts | 245° |
| 2026-05-04 00:34 | 41.06418 | -74.75794 | 29935 ft | 265 kts | 245° |
| 2026-05-04 00:34 | 41.05460 | -74.77875 | 29934 ft | 264 kts | 245° |
| 2026-05-04 00:35 | 41.04505 | -74.79951 | 29933 ft | 263 kts | 245° |
| 2026-05-04 00:35 | 41.03548 | -74.82026 | 29933 ft | 263 kts | 245° |
| 2026-05-04 00:35 | 41.02596 | -74.84093 | 29931 ft | 263 kts | 245° |
| 2026-05-04 00:35 | 41.01964 | -74.85463 | 29932 ft | 262 kts | 245° |
| 2026-05-04 00:36 | 41.01010 | -74.87530 | 29932 ft | 262 kts | 245° |
| 2026-05-04 00:36 | 41.00056 | -74.89591 | 29932 ft | 262 kts | 245° |
| 2026-05-04 00:36 | 40.99104 | -74.91652 | 29930 ft | 262 kts | 245° |
| 2026-05-04 00:36 | 40.98155 | -74.93701 | 29931 ft | 261 kts | 245° |
| 2026-05-04 00:37 | 40.97258 | -74.95782 | 29927 ft | 257 kts | 251° |
| 2026-05-04 00:37 | 40.96633 | -74.97974 | 29925 ft | 253 kts | 258° |
| 2026-05-04 00:37 | 40.96130 | -75.00206 | 29924 ft | 254 kts | 258° |
| 2026-05-04 00:37 | 40.95605 | -75.02444 | 29927 ft | 256 kts | 258° |
| 2026-05-04 00:38 | 40.95080 | -75.04693 | 29930 ft | 257 kts | 258° |
| 2026-05-04 00:38 | 40.94555 | -75.06955 | 29924 ft | 258 kts | 258° |
| 2026-05-04 00:38 | 40.94027 | -75.09227 | 29934 ft | 258 kts | 258° |
| 2026-05-04 00:38 | 40.93506 | -75.11468 | 29933 ft | 258 kts | 258° |
| 2026-05-04 00:39 | 40.92977 | -75.13733 | 29933 ft | 258 kts | 258° |
| 2026-05-04 00:39 | 40.92450 | -75.15997 | 29934 ft | 257 kts | 258° |
| 2026-05-04 00:39 | 40.91923 | -75.18253 | 29933 ft | 256 kts | 258° |
| 2026-05-04 00:39 | 40.91395 | -75.20509 | 29931 ft | 256 kts | 258° |
| 2026-05-04 00:40 | 40.90868 | -75.22762 | 29934 ft | 255 kts | 258° |
| 2026-05-04 00:40 | 40.90342 | -75.25009 | 29935 ft | 255 kts | 258° |
| 2026-05-04 00:40 | 40.89817 | -75.27250 | 29937 ft | 256 kts | 258° |
| 2026-05-04 00:40 | 40.89298 | -75.29468 | 29937 ft | 257 kts | 258° |
| 2026-05-04 00:41 | 40.88767 | -75.31725 | 29934 ft | 257 kts | 258° |
| 2026-05-04 00:41 | 40.88236 | -75.33975 | 29935 ft | 257 kts | 258° |
| 2026-05-04 00:41 | 40.87708 | -75.36230 | 29938 ft | 257 kts | 258° |
| 2026-05-04 00:41 | 40.87176 | -75.38485 | 29938 ft | 257 kts | 258° |
| 2026-05-04 00:42 | 40.86646 | -75.40737 | 29940 ft | 257 kts | 258° |
| 2026-05-04 00:42 | 40.86113 | -75.42998 | 29934 ft | 257 kts | 258° |
| 2026-05-04 00:42 | 40.85580 | -75.45253 | 29937 ft | 257 kts | 258° |
| 2026-05-04 00:42 | 40.85046 | -75.47506 | 29921 ft | 256 kts | 258° |
| 2026-05-04 00:43 | 40.84517 | -75.49743 | 29948 ft | 254 kts | 258° |
| 2026-05-04 00:43 | 40.83993 | -75.51961 | 29947 ft | 253 kts | 258° |
| 2026-05-04 00:43 | 40.83469 | -75.54172 | 29943 ft | 252 kts | 258° |
| 2026-05-04 00:43 | 40.82944 | -75.56381 | 29945 ft | 253 kts | 258° |
| 2026-05-04 00:44 | 40.82416 | -75.58602 | 29940 ft | 254 kts | 258° |
| 2026-05-04 00:44 | 40.81893 | -75.60802 | 29942 ft | 255 kts | 258° |
| 2026-05-04 00:44 | 40.81360 | -75.63041 | 29944 ft | 256 kts | 258° |
| 2026-05-04 00:44 | 40.80825 | -75.65282 | 29954 ft | 256 kts | 258° |
| 2026-05-04 00:45 | 40.80289 | -75.67523 | 29954 ft | 255 kts | 258° |
| 2026-05-04 00:45 | 40.79757 | -75.69751 | 29952 ft | 253 kts | 258° |
| 2026-05-04 00:45 | 40.79227 | -75.71969 | 29954 ft | 252 kts | 258° |
| 2026-05-04 00:45 | 40.78701 | -75.74174 | 29953 ft | 252 kts | 258° |
| 2026-05-04 00:46 | 40.78174 | -75.76382 | 29951 ft | 252 kts | 258° |
| 2026-05-04 00:46 | 40.77651 | -75.78564 | 29946 ft | 253 kts | 258° |
| 2026-05-04 00:46 | 40.77118 | -75.80776 | 29961 ft | 253 kts | 258° |
| 2026-05-04 00:46 | 40.76587 | -75.82991 | 29962 ft | 253 kts | 258° |
| 2026-05-04 00:47 | 40.76055 | -75.85205 | 29955 ft | 253 kts | 258° |
| 2026-05-04 00:47 | 40.75523 | -75.87416 | 29955 ft | 252 kts | 258° |
| 2026-05-04 00:47 | 40.75000 | -75.89593 | 29955 ft | 252 kts | 258° |
| 2026-05-04 00:47 | 40.74465 | -75.91807 | 29956 ft | 252 kts | 258° |
| 2026-05-04 00:48 | 40.73933 | -75.94006 | 29964 ft | 251 kts | 258° |
| 2026-05-04 00:48 | 40.73404 | -75.96202 | 29966 ft | 251 kts | 258° |
| 2026-05-04 00:48 | 40.72873 | -75.98403 | 29966 ft | 251 kts | 258° |
| 2026-05-04 00:48 | 40.72346 | -76.00577 | 29967 ft | 251 kts | 258° |
| 2026-05-04 00:49 | 40.71812 | -76.02776 | 29970 ft | 251 kts | 258° |
| 2026-05-04 00:49 | 40.71282 | -76.04961 | 29971 ft | 252 kts | 258° |
| 2026-05-04 00:49 | 40.70750 | -76.07150 | 29975 ft | 249 kts | 259° |
| 2026-05-04 00:49 | 40.70223 | -76.09318 | 29973 ft | 247 kts | 259° |
| 2026-05-04 00:50 | 40.69699 | -76.11475 | 29977 ft | 246 kts | 259° |
| 2026-05-04 00:50 | 40.69180 | -76.13619 | 29978 ft | 246 kts | 259° |
| 2026-05-04 00:50 | 40.68658 | -76.15772 | 29976 ft | 247 kts | 258° |
| 2026-05-04 00:50 | 40.68130 | -76.17934 | 29985 ft | 248 kts | 259° |
| 2026-05-04 00:51 | 40.67605 | -76.20073 | 29980 ft | 249 kts | 259° |
| 2026-05-04 00:51 | 40.67191 | -76.22268 | 29989 ft | 246 kts | 265° |
| 2026-05-04 00:51 | 40.67024 | -76.24500 | 29981 ft | 243 kts | 272° |
| 2026-05-04 00:51 | 40.67092 | -76.26707 | 29981 ft | 240 kts | 278° |
| 2026-05-04 00:52 | 40.67376 | -76.28859 | 29981 ft | 237 kts | 283° |
| 2026-05-04 00:52 | 40.67699 | -76.30990 | 29981 ft | 236 kts | 282° |
| 2026-05-04 00:52 | 40.68011 | -76.33125 | 29981 ft | 237 kts | 282° |
| 2026-05-04 00:52 | 40.68326 | -76.35235 | 29981 ft | 238 kts | 282° |
| 2026-05-04 00:53 | 40.68650 | -76.37386 | 29987 ft | 240 kts | 282° |
| 2026-05-04 00:53 | 40.68971 | -76.39545 | 29992 ft | 241 kts | 282° |
| 2026-05-04 00:53 | 40.69296 | -76.41717 | 29984 ft | 241 kts | 282° |
| 2026-05-04 00:53 | 40.69617 | -76.43877 | 29989 ft | 239 kts | 282° |
| 2026-05-04 00:54 | 40.69937 | -76.46017 | 29988 ft | 236 kts | 282° |
| 2026-05-04 00:54 | 40.70254 | -76.48146 | 29983 ft | 238 kts | 282° |
| 2026-05-04 00:54 | 40.70571 | -76.50297 | 29985 ft | 239 kts | 282° |
| 2026-05-04 00:54 | 40.70887 | -76.52426 | 29986 ft | 238 kts | 282° |
| 2026-05-04 00:55 | 40.71203 | -76.54557 | 29983 ft | 236 kts | 282° |
| 2026-05-04 00:55 | 40.71515 | -76.56676 | 29981 ft | 234 kts | 282° |
| 2026-05-04 00:55 | 40.71825 | -76.58780 | 29974 ft | 234 kts | 282° |
| 2026-05-04 00:55 | 40.72138 | -76.60898 | 29979 ft | 236 kts | 282° |
| 2026-05-04 00:56 | 40.72452 | -76.63030 | 29982 ft | 237 kts | 282° |
| 2026-05-04 00:56 | 40.72765 | -76.65169 | 29973 ft | 238 kts | 282° |
| 2026-05-04 00:56 | 40.73078 | -76.67311 | 29972 ft | 237 kts | 282° |
| 2026-05-04 00:56 | 40.73389 | -76.69423 | 29981 ft | 237 kts | 282° |
| 2026-05-04 00:57 | 40.73701 | -76.71558 | 29975 ft | 237 kts | 282° |
| 2026-05-04 00:57 | 40.74014 | -76.73694 | 29976 ft | 237 kts | 282° |
| 2026-05-04 00:57 | 40.74325 | -76.75833 | 29987 ft | 237 kts | 282° |
| 2026-05-04 00:57 | 40.74639 | -76.77977 | 29987 ft | 238 kts | 282° |
| 2026-05-04 00:58 | 40.74950 | -76.80117 | 29975 ft | 237 kts | 282° |
| 2026-05-04 00:58 | 40.75256 | -76.82211 | 29978 ft | 235 kts | 282° |
| 2026-05-04 00:58 | 40.75564 | -76.84337 | 29979 ft | 235 kts | 282° |
| 2026-05-04 00:58 | 40.75871 | -76.86461 | 29975 ft | 235 kts | 282° |
| 2026-05-04 00:59 | 40.76179 | -76.88575 | 29981 ft | 235 kts | 282° |
| 2026-05-04 00:59 | 40.76483 | -76.90688 | 29981 ft | 234 kts | 282° |
| 2026-05-04 00:59 | 40.76788 | -76.92803 | 29984 ft | 234 kts | 282° |
| 2026-05-04 00:59 | 40.77092 | -76.94913 | 29976 ft | 234 kts | 282° |
| 2026-05-04 01:00 | 40.77396 | -76.97021 | 29981 ft | 234 kts | 282° |
| 2026-05-04 01:00 | 40.77701 | -76.99133 | 29982 ft | 234 kts | 282° |
| 2026-05-04 01:00 | 40.78003 | -77.01250 | 29983 ft | 235 kts | 282° |
| 2026-05-04 01:00 | 40.78308 | -77.03371 | 29982 ft | 236 kts | 282° |
| 2026-05-04 01:01 | 40.78608 | -77.05469 | 29984 ft | 236 kts | 282° |
| 2026-05-04 01:01 | 40.78916 | -77.07625 | 29990 ft | 236 kts | 282° |
| 2026-05-04 01:01 | 40.79218 | -77.09724 | 29991 ft | 236 kts | 282° |
| 2026-05-04 01:01 | 40.79521 | -77.11856 | 29991 ft | 236 kts | 282° |
| 2026-05-04 01:02 | 40.79826 | -77.13993 | 29987 ft | 236 kts | 282° |
| 2026-05-04 01:02 | 40.80129 | -77.16126 | 29982 ft | 237 kts | 282° |
| 2026-05-04 01:02 | 40.80433 | -77.18261 | 29978 ft | 237 kts | 282° |
| 2026-05-04 01:02 | 40.80734 | -77.20393 | 29983 ft | 236 kts | 282° |
| 2026-05-04 01:03 | 40.81035 | -77.22513 | 29984 ft | 235 kts | 282° |
| 2026-05-04 01:03 | 40.81335 | -77.24624 | 29988 ft | 233 kts | 281° |
| 2026-05-04 01:03 | 40.81633 | -77.26727 | 29983 ft | 232 kts | 281° |
| 2026-05-04 01:03 | 40.81921 | -77.28806 | 29983 ft | 232 kts | 281° |
| 2026-05-04 01:04 | 40.82219 | -77.30896 | 29982 ft | 232 kts | 281° |
| 2026-05-04 01:04 | 40.82515 | -77.32997 | 29993 ft | 232 kts | 281° |
| 2026-05-04 01:04 | 40.82808 | -77.35097 | 29985 ft | 233 kts | 281° |
| 2026-05-04 01:04 | 40.83104 | -77.37206 | 29986 ft | 235 kts | 281° |
| 2026-05-04 01:05 | 40.83403 | -77.39337 | 29989 ft | 236 kts | 281° |
| 2026-05-04 01:05 | 40.83703 | -77.41474 | 29990 ft | 236 kts | 281° |
| 2026-05-04 01:05 | 40.83999 | -77.43600 | 29988 ft | 235 kts | 281° |
| 2026-05-04 01:05 | 40.84294 | -77.45720 | 29987 ft | 234 kts | 281° |
| 2026-05-04 01:06 | 40.84585 | -77.47810 | 29992 ft | 233 kts | 281° |
| 2026-05-04 01:06 | 40.84878 | -77.49912 | 29991 ft | 232 kts | 281° |
| 2026-05-04 01:06 | 40.85170 | -77.52009 | 29989 ft | 232 kts | 281° |
| 2026-05-04 01:06 | 40.85462 | -77.54108 | 29988 ft | 232 kts | 281° |
| 2026-05-04 01:07 | 40.85753 | -77.56215 | 29987 ft | 234 kts | 281° |
| 2026-05-04 01:07 | 40.86045 | -77.58330 | 29987 ft | 235 kts | 281° |
| 2026-05-04 01:07 | 40.86339 | -77.60454 | 29987 ft | 236 kts | 281° |
| 2026-05-04 01:07 | 40.86633 | -77.62592 | 29987 ft | 237 kts | 281° |
| 2026-05-04 01:08 | 40.86928 | -77.64739 | 29987 ft | 237 kts | 281° |
| 2026-05-04 01:08 | 40.87222 | -77.66878 | 29987 ft | 235 kts | 281° |
| 2026-05-04 01:08 | 40.87511 | -77.68995 | 29989 ft | 234 kts | 281° |
| 2026-05-04 01:08 | 40.87802 | -77.71116 | 29989 ft | 234 kts | 281° |
| 2026-05-04 01:09 | 40.88090 | -77.73207 | 29991 ft | 235 kts | 281° |
| 2026-05-04 01:09 | 40.88381 | -77.75326 | 29992 ft | 235 kts | 281° |
| 2026-05-04 01:09 | 40.88670 | -77.77458 | 29992 ft | 235 kts | 281° |
| 2026-05-04 01:09 | 40.88962 | -77.79583 | 29991 ft | 235 kts | 281° |
| 2026-05-04 01:10 | 40.89252 | -77.81708 | 29983 ft | 235 kts | 281° |
| 2026-05-04 01:10 | 40.89541 | -77.83839 | 29981 ft | 235 kts | 281° |
| 2026-05-04 01:10 | 40.89830 | -77.85963 | 29986 ft | 235 kts | 281° |
| 2026-05-04 01:10 | 40.90119 | -77.88095 | 29986 ft | 236 kts | 281° |
| 2026-05-04 01:11 | 40.90407 | -77.90235 | 29984 ft | 236 kts | 281° |
| 2026-05-04 01:11 | 40.90692 | -77.92347 | 29989 ft | 236 kts | 281° |
| 2026-05-04 01:11 | 40.90983 | -77.94488 | 29985 ft | 237 kts | 281° |
| 2026-05-04 01:11 | 40.91271 | -77.96628 | 29984 ft | 236 kts | 280° |
| 2026-05-04 01:12 | 40.91559 | -77.98769 | 29987 ft | 236 kts | 280° |
| 2026-05-04 01:12 | 40.91841 | -78.00913 | 29989 ft | 237 kts | 279° |
| 2026-05-04 01:12 | 40.92103 | -78.03068 | 29990 ft | 237 kts | 279° |
| 2026-05-04 01:12 | 40.92367 | -78.05224 | 29992 ft | 237 kts | 279° |
| 2026-05-04 01:13 | 40.92636 | -78.07377 | 29994 ft | 238 kts | 279° |
| 2026-05-04 01:13 | 40.92903 | -78.09534 | 29993 ft | 238 kts | 279° |
| 2026-05-04 01:13 | 40.93169 | -78.11678 | 29996 ft | 238 kts | 279° |
| 2026-05-04 01:13 | 40.93437 | -78.13846 | 29995 ft | 238 kts | 280° |
| 2026-05-04 01:14 | 40.93704 | -78.16004 | 29989 ft | 237 kts | 279° |
| 2026-05-04 01:14 | 40.93970 | -78.18158 | 29983 ft | 237 kts | 279° |
| 2026-05-04 01:14 | 40.94234 | -78.20303 | 29983 ft | 236 kts | 279° |
| 2026-05-04 01:14 | 40.94496 | -78.22445 | 29980 ft | 235 kts | 279° |
| 2026-05-04 01:15 | 40.94757 | -78.24579 | 29983 ft | 235 kts | 279° |
| 2026-05-04 01:15 | 40.95018 | -78.26710 | 29981 ft | 235 kts | 279° |
| 2026-05-04 01:15 | 40.95279 | -78.28847 | 29980 ft | 236 kts | 279° |
| 2026-05-04 01:15 | 40.95537 | -78.30967 | 29979 ft | 237 kts | 279° |
| 2026-05-04 01:16 | 40.95799 | -78.33118 | 29978 ft | 237 kts | 279° |
| 2026-05-04 01:16 | 40.96062 | -78.35283 | 29980 ft | 238 kts | 279° |
| 2026-05-04 01:16 | 40.96326 | -78.37454 | 29977 ft | 239 kts | 279° |
| 2026-05-04 01:16 | 40.96591 | -78.39628 | 29979 ft | 239 kts | 279° |
| 2026-05-04 01:17 | 40.96854 | -78.41802 | 29977 ft | 238 kts | 279° |
| 2026-05-04 01:17 | 40.97114 | -78.43958 | 29974 ft | 237 kts | 279° |
| 2026-05-04 01:17 | 40.97374 | -78.46111 | 29975 ft | 236 kts | 279° |
| 2026-05-04 01:17 | 40.97633 | -78.48253 | 29973 ft | 235 kts | 279° |
| 2026-05-04 01:18 | 40.97891 | -78.50394 | 29976 ft | 236 kts | 279° |
| 2026-05-04 01:18 | 40.98149 | -78.52542 | 29977 ft | 236 kts | 279° |
| 2026-05-04 01:18 | 40.98404 | -78.54669 | 29979 ft | 237 kts | 279° |
| 2026-05-04 01:18 | 40.98661 | -78.56829 | 29980 ft | 237 kts | 279° |
| 2026-05-04 01:19 | 40.98920 | -78.58993 | 29983 ft | 238 kts | 279° |
| 2026-05-04 01:19 | 40.99179 | -78.61159 | 29985 ft | 239 kts | 279° |
| 2026-05-04 01:19 | 40.99436 | -78.63332 | 29987 ft | 239 kts | 279° |
| 2026-05-04 01:19 | 40.99696 | -78.65511 | 29989 ft | 240 kts | 279° |
| 2026-05-04 01:20 | 40.99954 | -78.67689 | 29991 ft | 239 kts | 279° |
| 2026-05-04 01:20 | 41.00211 | -78.69859 | 29985 ft | 239 kts | 279° |
| 2026-05-04 01:20 | 41.00470 | -78.72040 | 29991 ft | 241 kts | 279° |
| 2026-05-04 01:20 | 41.00727 | -78.74211 | 29993 ft | 242 kts | 279° |
| 2026-05-04 01:21 | 41.00987 | -78.76420 | 29981 ft | 243 kts | 279° |
| 2026-05-04 01:21 | 41.01249 | -78.78644 | 29977 ft | 243 kts | 279° |
| 2026-05-04 01:21 | 41.01485 | -78.80660 | 30631 ft | 177 kts | 279° |
| 2026-05-04 01:21 | 41.01600 | -78.81679 | 32374 ft | 38 kts | 294° |
| 2026-05-04 01:22 | 41.01498 | -78.81012 | 31026 ft | 82 kts | 250° |
| 2026-05-04 01:22 | 41.01428 | -78.80583 | 30421 ft | 56 kts | 247° |
| 2026-05-04 01:22 | 41.01344 | -78.79988 | 29763 ft | 60 kts | 274° |
| 2026-05-04 01:22 | 41.01268 | -78.79482 | 29005 ft | 59 kts | 269° |
| 2026-05-04 01:23 | 41.01187 | -78.78964 | 28293 ft | 53 kts | 266° |